createdAt,value
2023-03-03T00:02:17.827Z,5.40
2023-03-03T00:04:48.760Z,5.20
2023-03-03T00:07:23.293Z,5.30
2023-03-03T00:09:52.198Z,5.30
2023-03-03T00:12:25.518Z,5.20
2023-03-03T00:14:54.303Z,5.40
2023-03-03T00:17:24.658Z,5.30
2023-03-03T00:19:53.641Z,5.20
2023-03-03T00:22:30.834Z,5.30
2023-03-03T00:25:01.970Z,5.30
2023-03-03T00:27:32.947Z,5.20
2023-03-03T00:30:02.137Z,5.30
2023-03-03T00:32:39.616Z,5.20
2023-03-03T00:35:24.922Z,5.10
2023-03-03T00:37:58.607Z,5.00
2023-03-03T00:40:32.621Z,5.20
2023-03-03T00:43:01.896Z,4.90
2023-03-03T00:45:32.906Z,5.20
2023-03-03T00:48:17.726Z,5.20
2023-03-03T00:50:46.158Z,5.00
2023-03-03T00:53:18.268Z,5.00
2023-03-03T00:55:48.615Z,5.10
2023-03-03T00:58:18.669Z,5.00
2023-03-03T01:00:47.238Z,5.00
2023-03-03T01:03:17.850Z,4.90
2023-03-03T01:05:46.300Z,5.00
2023-03-03T01:08:16.153Z,5.10
2023-03-03T01:10:47.549Z,5.00
2023-03-03T01:13:15.988Z,5.00
2023-03-03T01:15:44.809Z,4.80
2023-03-03T01:18:14.889Z,4.80
2023-03-03T01:20:43.481Z,4.80
2023-03-03T01:23:11.929Z,5.20
2023-03-03T01:25:41.736Z,5.10
2023-03-03T01:28:10.345Z,5.00
2023-03-03T01:30:39.124Z,5.10
2023-03-03T01:33:07.449Z,5.00
2023-03-03T01:35:36.807Z,5.10
2023-03-03T01:38:05.595Z,4.90
2023-03-03T01:40:34.151Z,4.90
2023-03-03T01:43:04.467Z,4.90
2023-03-03T01:45:37.633Z,4.80
2023-03-03T01:48:09.867Z,5.00
2023-03-03T01:50:44.393Z,4.90
2023-03-03T01:53:18.236Z,4.80
2023-03-03T01:55:48.508Z,5.00
2023-03-03T01:58:22.652Z,4.90
2023-03-03T02:00:54.090Z,4.90
2023-03-03T02:03:24.763Z,5.00
2023-03-03T02:05:56.019Z,4.80
2023-03-03T02:08:29.647Z,4.80
2023-03-03T02:10:58.882Z,4.90
2023-03-03T02:13:28.589Z,4.80
2023-03-03T02:15:57.237Z,4.80
2023-03-03T02:18:26.139Z,4.90
2023-03-03T02:20:59.290Z,4.80
2023-03-03T02:23:35.841Z,4.80
2023-03-03T02:26:10.622Z,4.80
2023-03-03T02:28:40.795Z,4.70
2023-03-03T02:31:13.242Z,4.80
2023-03-03T02:33:43.313Z,4.70
2023-03-03T02:36:14.633Z,4.80
2023-03-03T02:38:49.372Z,4.90
2023-03-03T02:41:28.173Z,4.80
2023-03-03T02:44:00.733Z,4.60
2023-03-03T02:46:30.012Z,4.80
2023-03-03T02:48:58.280Z,4.70
2023-03-03T02:51:26.514Z,4.60
2023-03-03T02:53:54.882Z,4.70
2023-03-03T02:56:24.784Z,4.80
2023-03-03T02:58:53.160Z,4.80
2023-03-03T03:01:21.655Z,4.80
2023-03-03T03:03:50.264Z,4.80
2023-03-03T03:06:18.556Z,4.60
2023-03-03T03:08:47.273Z,4.80
2023-03-03T03:11:15.823Z,4.70
2023-03-03T03:13:45.426Z,4.60
2023-03-03T03:16:13.694Z,4.70
2023-03-03T03:18:41.989Z,4.60
2023-03-03T03:21:12.117Z,4.50
2023-03-03T03:23:40.693Z,4.60
2023-03-03T03:26:09.804Z,4.50
2023-03-03T03:28:38.663Z,4.40
2023-03-03T03:31:09.576Z,4.60
2023-03-03T03:33:38.971Z,4.40
2023-03-03T03:36:08.297Z,4.60
2023-03-03T03:38:37.698Z,4.40
2023-03-03T03:41:07.313Z,4.30
2023-03-03T03:43:35.996Z,4.40
2023-03-03T03:46:04.474Z,4.50
2023-03-03T03:48:34.405Z,4.50
2023-03-03T03:51:02.653Z,4.50
2023-03-03T03:53:30.838Z,4.50
2023-03-03T03:55:59.244Z,4.40
2023-03-03T03:58:27.478Z,4.40
2023-03-03T04:00:56.756Z,4.30
2023-03-03T04:03:25.043Z,4.50
2023-03-03T04:05:55.241Z,4.30
2023-03-03T04:08:23.472Z,4.50
2023-03-03T04:10:51.996Z,4.60
2023-03-03T04:13:20.217Z,4.50
2023-03-03T04:15:48.418Z,4.60
2023-03-03T04:18:18.790Z,4.40
2023-03-03T04:20:47.413Z,4.40
2023-03-03T04:23:18.043Z,4.50
2023-03-03T04:25:47.966Z,4.50
2023-03-03T04:28:16.644Z,4.50
2023-03-03T04:30:45.322Z,4.50
2023-03-03T04:33:13.487Z,4.60
2023-03-03T04:35:41.954Z,4.60
2023-03-03T04:38:10.242Z,4.60
2023-03-03T04:40:41.718Z,4.50
2023-03-03T04:43:10.700Z,4.50
2023-03-03T04:45:38.900Z,4.50
2023-03-03T04:48:07.779Z,4.50
2023-03-03T04:50:36.032Z,4.40
2023-03-03T04:53:04.933Z,4.40
2023-03-03T04:55:33.389Z,4.40
2023-03-03T04:58:03.311Z,4.30
2023-03-03T05:00:31.691Z,4.30
2023-03-03T05:03:00.624Z,4.30
2023-03-03T05:05:29.186Z,4.20
2023-03-03T05:07:57.534Z,4.30
2023-03-03T05:10:25.801Z,4.20
2023-03-03T05:12:54.150Z,4.20
2023-03-03T05:15:24.161Z,4.20
2023-03-03T05:17:53.535Z,4.20
2023-03-03T05:20:21.653Z,4.20
2023-03-03T05:22:50.011Z,4.30
2023-03-03T05:25:18.348Z,4.20
2023-03-03T05:27:46.706Z,4.30
2023-03-03T05:30:15.534Z,4.30
2023-03-03T05:32:45.228Z,4.30
2023-03-03T05:35:13.394Z,4.10
2023-03-03T05:37:47.348Z,4.10
2023-03-03T05:40:16.199Z,4.10
2023-03-03T05:42:44.816Z,3.90
2023-03-03T05:45:13.512Z,3.80
2023-03-03T05:47:42.037Z,3.90
2023-03-03T05:50:12.474Z,3.80
2023-03-03T05:52:40.903Z,3.90
2023-03-03T05:55:11.161Z,4.00
2023-03-03T05:57:39.567Z,3.90
2023-03-03T06:00:09.274Z,3.90
2023-03-03T06:02:37.804Z,4.00
2023-03-03T06:05:07.530Z,3.90
2023-03-03T06:07:37.255Z,3.70
2023-03-03T06:10:09.146Z,3.90
2023-03-03T06:12:42.246Z,4.10
2023-03-03T06:15:11.899Z,3.80
2023-03-03T06:17:40.335Z,3.90
2023-03-03T06:20:09.825Z,3.90
2023-03-03T06:22:42.236Z,4.10
2023-03-03T06:25:10.996Z,4.00
2023-03-03T06:27:39.565Z,3.80
2023-03-03T06:30:08.864Z,4.00
2023-03-03T06:32:37.315Z,4.10
2023-03-03T06:35:06.241Z,4.00
2023-03-03T06:37:34.964Z,3.90
2023-03-03T06:40:10.419Z,4.00
2023-03-03T06:42:38.865Z,3.90
2023-03-03T06:45:07.804Z,4.00
2023-03-03T06:47:36.067Z,4.10
2023-03-03T06:50:04.262Z,4.10
2023-03-03T06:52:32.452Z,4.10
2023-03-03T06:55:03.204Z,4.20
2023-03-03T06:57:35.875Z,4.10
2023-03-03T07:00:15.430Z,4.10
2023-03-03T07:02:44.252Z,4.10
2023-03-03T07:05:15.752Z,4.40
2023-03-03T07:07:44.592Z,4.10
2023-03-03T07:10:22.501Z,4.20
2023-03-03T07:12:53.397Z,4.20
2023-03-03T07:15:24.203Z,4.20
2023-03-03T07:17:58.292Z,4.30
2023-03-03T07:20:35.126Z,4.10
2023-03-03T07:23:19.786Z,4.10
2023-03-03T07:25:48.609Z,4.20
2023-03-03T07:28:24.411Z,4.20
2023-03-03T07:30:53.377Z,4.20
2023-03-03T07:33:27.794Z,4.00
2023-03-03T07:38:53.920Z,4.30
2023-03-03T07:41:23.514Z,4.20
2023-03-03T07:43:55.870Z,4.30
2023-03-03T07:46:35.705Z,4.40
2023-03-03T07:49:17.330Z,4.30
2023-03-03T07:51:45.686Z,4.20
2023-03-03T07:54:28.932Z,4.30
2023-03-03T07:56:58.961Z,4.30
2023-03-03T08:02:45.381Z,4.10
2023-03-03T08:05:32.010Z,4.20
2023-03-03T08:08:16.399Z,4.40
2023-03-03T08:10:48.937Z,4.20
2023-03-03T08:13:22.283Z,4.10
2023-03-03T08:15:55.944Z,4.30
2023-03-03T08:18:28.372Z,4.20
2023-03-03T08:20:59.543Z,4.20
2023-03-03T08:23:28.154Z,4.30
2023-03-03T08:25:58.654Z,4.20
2023-03-03T08:28:30.690Z,4.20
2023-03-03T08:31:15.437Z,4.30
2023-03-03T08:33:47.796Z,4.10
2023-03-03T08:36:16.131Z,4.30
2023-03-03T08:38:44.764Z,4.40
2023-03-03T08:41:14.064Z,4.30
2023-03-03T08:43:43.552Z,4.40
2023-03-03T08:46:13.608Z,4.40
2023-03-03T08:48:43.904Z,4.20
2023-03-03T08:51:12.413Z,4.10
2023-03-03T08:53:40.903Z,4.10
2023-03-03T08:56:10.303Z,4.20
2023-03-03T08:58:41.989Z,4.10
2023-03-03T09:01:16.292Z,4.10
2023-03-03T09:03:44.638Z,4.10
2023-03-03T09:06:12.895Z,4.30
2023-03-03T09:08:41.222Z,4.20
2023-03-03T09:11:12.950Z,4.10
2023-03-03T09:13:42.292Z,4.10
2023-03-03T09:16:15.590Z,4.10
2023-03-03T09:18:45.323Z,4.30
2023-03-03T09:21:21.920Z,4.10
2023-03-03T09:23:57.165Z,4.20
2023-03-03T09:26:30.177Z,4.20
2023-03-03T09:29:19.334Z,4.30
2023-03-03T09:31:51.711Z,4.20
2023-03-03T09:34:23.994Z,4.20
2023-03-03T09:36:53.737Z,4.10
2023-03-03T09:39:24.196Z,4.10
2023-03-03T09:42:16.903Z,4.20
2023-03-03T09:45:20.140Z,3.90
2023-03-03T09:48:20.521Z,4.20
2023-03-03T09:51:01.583Z,4.20
2023-03-03T09:53:53.936Z,4.20
2023-03-03T09:56:31.344Z,4.20
2023-03-03T09:59:15.668Z,4.00
2023-03-03T10:01:58.868Z,4.10
2023-03-03T10:04:54.218Z,4.20
2023-03-03T10:07:30.606Z,4.20
2023-03-03T10:10:25.378Z,4.10
2023-03-03T10:13:08.334Z,4.00
2023-03-03T10:15:53.432Z,4.10
2023-03-03T10:18:33.550Z,4.20
2023-03-03T10:21:10.949Z,4.10
2023-03-03T10:23:53.186Z,4.10
2023-03-03T10:27:01.264Z,4.20
2023-03-03T10:29:44.698Z,4.10
2023-03-03T10:32:34.484Z,4.10
2023-03-03T10:35:18.425Z,4.20
2023-03-03T10:37:59.466Z,4.30
2023-03-03T10:40:36.269Z,4.20
2023-03-03T10:43:31.807Z,4.30
2023-03-03T10:46:17.123Z,4.30
2023-03-03T10:49:04.953Z,4.40
2023-03-03T10:51:43.799Z,4.30
2023-03-03T10:54:30.539Z,4.40
2023-03-03T10:57:04.082Z,4.20
2023-03-03T10:59:51.305Z,4.40
2023-03-03T11:02:25.012Z,4.50
2023-03-03T11:05:30.067Z,4.30
2023-03-03T11:08:02.388Z,4.30
2023-03-03T11:10:52.422Z,4.30
2023-03-03T11:13:25.880Z,4.30
2023-03-03T11:16:14.903Z,4.30
2023-03-03T11:19:00.039Z,4.40
2023-03-03T11:21:36.205Z,4.20
2023-03-03T11:24:25.338Z,4.20
2023-03-03T11:27:16.919Z,4.40
2023-03-03T11:30:03.794Z,4.50
2023-03-03T11:32:41.584Z,4.30
2023-03-03T11:35:27.557Z,4.40
2023-03-03T11:38:09.515Z,4.60
2023-03-03T11:40:54.439Z,4.40
2023-03-03T11:43:36.946Z,4.50
2023-03-03T11:46:12.070Z,4.60
2023-03-03T11:48:47.378Z,4.70
2023-03-03T11:51:23.314Z,4.80
2023-03-03T11:54:02.618Z,4.50
2023-03-03T11:56:40.113Z,4.80
2023-03-03T11:59:37.887Z,4.70
2023-03-03T12:02:34.666Z,4.70
2023-03-03T12:05:09.861Z,4.80
2023-03-03T12:07:47.367Z,4.90
2023-03-03T12:10:27.787Z,4.60
2023-03-03T12:13:03.675Z,4.80
2023-03-03T12:15:57.987Z,4.80
2023-03-03T12:18:36.922Z,4.90
2023-03-03T12:21:16.449Z,4.80
2023-03-03T12:24:06.647Z,5.00
2023-03-03T12:26:41.664Z,5.00
2023-03-03T12:29:20.630Z,5.00
2023-03-03T12:31:55.385Z,4.90
2023-03-03T12:34:31.077Z,4.80
2023-03-03T12:37:19.215Z,5.10
2023-03-03T12:40:02.490Z,5.10
2023-03-03T12:42:46.207Z,5.10
2023-03-03T12:45:31.624Z,5.40
2023-03-03T12:48:07.309Z,5.20
2023-03-03T12:50:44.208Z,5.30
2023-03-03T12:53:26.573Z,5.30
2023-03-03T12:56:01.745Z,5.20
2023-03-03T12:58:42.536Z,5.40
2023-03-03T13:01:22.392Z,5.40
2023-03-03T13:03:59.422Z,5.30
2023-03-03T13:06:30.979Z,5.60
2023-03-03T13:09:18.714Z,5.30
2023-03-03T13:11:59.703Z,5.60
2023-03-03T13:14:36.712Z,5.60
2023-03-03T13:17:16.504Z,5.60
2023-03-03T13:19:50.666Z,5.20
2023-03-03T13:22:29.041Z,5.50
2023-03-03T13:25:02.979Z,5.60
2023-03-03T13:27:43.818Z,5.40
2023-03-03T13:30:19.681Z,5.70
2023-03-03T13:32:56.272Z,5.60
2023-03-03T13:35:34.686Z,5.70
2023-03-03T13:38:06.038Z,5.50
2023-03-03T13:40:43.252Z,5.60
2023-03-03T13:43:18.332Z,5.70
2023-03-03T13:45:58.540Z,5.70
2023-03-03T13:48:47.350Z,5.90
2023-03-03T13:51:25.482Z,5.90
2023-03-03T13:54:01.215Z,5.70
2023-03-03T13:56:44.752Z,5.90
2023-03-03T13:59:23.219Z,5.90
2023-03-03T14:01:59.069Z,6.00
2023-03-03T14:04:36.750Z,6.10
2023-03-03T14:07:14.596Z,6.20
2023-03-03T14:09:59.758Z,6.10
2023-03-03T14:12:35.506Z,6.10
2023-03-03T14:15:12.656Z,6.00
2023-03-03T14:17:50.483Z,6.10
2023-03-03T14:20:25.318Z,6.00
2023-03-03T14:22:57.444Z,5.90
2023-03-03T14:25:26.107Z,6.10
2023-03-03T14:28:05.874Z,5.90
2023-03-03T14:30:38.675Z,6.00
2023-03-03T14:33:27.151Z,6.00
2023-03-03T14:36:11.441Z,6.00
2023-03-03T14:38:51.817Z,6.00
2023-03-03T14:41:23.593Z,6.00
2023-03-03T14:44:01.012Z,5.90
2023-03-03T14:46:38.571Z,5.90
2023-03-03T14:49:14.535Z,5.90
2023-03-03T14:51:45.381Z,5.90
2023-03-03T14:54:25.536Z,5.90
2023-03-03T14:57:04.607Z,5.90
2023-03-03T14:59:33.316Z,5.80
2023-03-03T15:02:29.461Z,5.80
2023-03-03T15:05:20.947Z,5.90
2023-03-03T15:07:53.536Z,6.00
2023-03-03T15:10:33.380Z,6.00
2023-03-03T15:13:35.597Z,5.80
2023-03-03T15:16:11.724Z,5.90
2023-03-03T15:19:11.875Z,5.90
2023-03-03T15:21:46.984Z,5.90
2023-03-03T15:24:23.611Z,5.80
2023-03-03T15:26:58.364Z,6.00
2023-03-03T15:29:33.077Z,5.80
2023-03-03T15:32:09.120Z,6.00
2023-03-03T15:34:42.633Z,5.90
2023-03-03T15:37:27.099Z,5.90
2023-03-03T15:40:04.432Z,6.00
2023-03-03T15:42:42.202Z,6.00
2023-03-03T15:45:20.949Z,5.90
2023-03-03T15:48:04.057Z,6.10
2023-03-03T15:50:43.424Z,6.10
2023-03-03T15:53:22.669Z,5.80
2023-03-03T15:56:05.181Z,5.80
2023-03-03T15:59:01.953Z,6.00
2023-03-03T16:01:34.424Z,5.90
2023-03-03T16:04:07.501Z,5.80
2023-03-03T16:06:44.454Z,5.80
2023-03-03T16:09:25.613Z,5.90
2023-03-03T16:12:01.028Z,5.90
2023-03-03T16:14:55.281Z,5.90
2023-03-03T16:17:32.525Z,5.70
2023-03-03T16:20:12.000Z,5.80
2023-03-03T16:23:11.322Z,5.90
2023-03-03T16:25:59.638Z,5.80
2023-03-03T16:28:38.556Z,5.70
2023-03-03T16:31:13.025Z,5.60
2023-03-03T16:33:50.286Z,5.80
2023-03-03T16:36:28.997Z,5.60
2023-03-03T16:39:04.177Z,5.80
2023-03-03T16:41:46.611Z,5.80
2023-03-03T16:44:30.902Z,5.80
2023-03-03T16:47:13.524Z,5.80
2023-03-03T16:49:54.308Z,5.60
2023-03-03T16:52:30.953Z,5.50
2023-03-03T16:55:06.131Z,5.60
2023-03-03T16:57:42.896Z,5.30
2023-03-03T17:00:20.841Z,5.60
2023-03-03T17:03:11.413Z,5.60
2023-03-03T17:08:47.347Z,5.60
2023-03-03T17:11:27.533Z,5.50
2023-03-03T17:14:24.264Z,5.60
2023-03-03T17:17:07.049Z,5.30
2023-03-03T17:20:00.734Z,5.20
2023-03-03T17:22:42.219Z,5.40
2023-03-03T17:25:18.371Z,5.50
2023-03-03T17:28:00.836Z,5.40
2023-03-03T17:30:37.325Z,5.40
2023-03-03T17:33:39.828Z,5.40
2023-03-03T17:36:24.222Z,5.30
2023-03-03T17:39:05.048Z,5.30
2023-03-03T17:41:41.540Z,5.40
2023-03-03T17:44:19.806Z,5.30
2023-03-03T17:46:55.232Z,5.30
2023-03-03T17:49:55.633Z,5.30
2023-03-03T17:52:48.738Z,5.20
2023-03-03T17:55:40.470Z,5.30
2023-03-03T17:58:35.330Z,5.30
2023-03-03T18:01:16.572Z,5.20
2023-03-03T18:04:18.071Z,5.30
2023-03-03T18:07:29.236Z,5.00
2023-03-03T18:10:21.553Z,5.20
2023-03-03T18:13:00.634Z,5.00
2023-03-03T18:15:46.820Z,5.20
2023-03-03T18:18:42.725Z,5.30
2023-03-03T18:21:16.846Z,5.30
2023-03-03T18:23:47.047Z,5.10
2023-03-03T18:26:37.002Z,5.10
2023-03-03T18:29:32.094Z,5.20
2023-03-03T18:32:21.523Z,5.30
2023-03-03T18:35:10.328Z,5.30
2023-03-03T18:37:45.039Z,5.10
2023-03-03T18:40:31.933Z,5.30
2023-03-03T18:43:40.025Z,5.20
2023-03-03T18:46:11.805Z,5.20
2023-03-03T18:48:52.407Z,5.10
2023-03-03T18:51:50.026Z,5.30
2023-03-03T18:54:31.289Z,5.30
2023-03-03T18:57:18.838Z,5.20
2023-03-03T18:59:59.363Z,5.10
2023-03-03T19:02:38.901Z,5.00
2023-03-03T19:05:19.117Z,5.00
2023-03-03T19:07:57.711Z,5.10
2023-03-03T19:10:49.716Z,5.20
2023-03-03T19:13:41.583Z,5.20
2023-03-03T19:16:28.820Z,5.00
2023-03-03T19:19:03.587Z,5.20
2023-03-03T19:21:33.840Z,4.90
2023-03-03T19:24:04.452Z,5.10
2023-03-03T19:27:12.726Z,5.00
2023-03-03T19:30:08.111Z,5.10
2023-03-03T19:32:53.419Z,5.20
2023-03-03T19:35:31.391Z,5.10
2023-03-03T19:38:18.558Z,4.80
2023-03-03T19:40:51.919Z,5.00
2023-03-03T19:43:31.442Z,4.90
2023-03-03T19:46:16.271Z,4.70
2023-03-03T19:48:55.180Z,5.10
2023-03-03T19:51:33.925Z,4.90
2023-03-03T19:54:23.154Z,4.80
2023-03-03T19:56:54.513Z,5.00
2023-03-03T19:59:33.970Z,5.00
2023-03-03T20:02:28.657Z,4.80
2023-03-03T20:05:08.131Z,4.70
2023-03-03T20:07:45.470Z,4.90
2023-03-03T20:10:37.989Z,4.80
2023-03-03T20:13:40.373Z,4.70
2023-03-03T20:16:22.802Z,4.90
2023-03-03T20:19:15.910Z,4.70
2023-03-03T20:21:53.086Z,4.80
2023-03-03T20:24:47.598Z,4.80
2023-03-03T20:27:20.129Z,4.80
2023-03-03T20:30:08.562Z,5.00
2023-03-03T20:32:49.767Z,5.00
2023-03-03T20:35:30.372Z,4.80
2023-03-03T20:38:10.928Z,5.00
2023-03-03T20:40:45.173Z,4.80
2023-03-03T20:43:27.291Z,4.80
2023-03-03T20:46:07.800Z,5.00
2023-03-03T20:48:53.755Z,4.80
2023-03-03T20:51:31.833Z,4.80
2023-03-03T20:54:13.789Z,4.70
2023-03-03T20:56:48.643Z,4.70
2023-03-03T20:59:28.214Z,4.50
2023-03-03T21:02:05.955Z,4.70
2023-03-03T21:04:36.163Z,4.80
2023-03-03T21:07:07.019Z,4.70
2023-03-03T21:09:39.448Z,4.90
2023-03-03T21:12:26.333Z,4.60
2023-03-03T21:15:02.702Z,4.70
2023-03-03T21:17:32.602Z,4.60
2023-03-03T21:20:20.711Z,4.90
2023-03-03T21:22:51.517Z,4.70
2023-03-03T21:25:52.217Z,4.60
2023-03-03T21:28:23.739Z,4.70
2023-03-03T21:31:13.347Z,4.80
2023-03-03T21:34:00.192Z,4.80
2023-03-03T21:36:47.216Z,4.70
2023-03-03T21:39:28.854Z,4.60
2023-03-03T21:42:01.695Z,4.80
2023-03-03T21:44:32.729Z,4.80
2023-03-03T21:47:02.424Z,4.70
2023-03-03T21:49:30.703Z,4.50
2023-03-03T21:52:00.595Z,4.50
2023-03-03T21:54:29.496Z,4.60
2023-03-03T21:56:59.340Z,4.50
2023-03-03T21:59:27.973Z,4.50
2023-03-03T22:01:56.530Z,4.60
2023-03-03T22:04:25.039Z,4.70
2023-03-03T22:06:53.488Z,4.60
2023-03-03T22:09:21.627Z,4.80
2023-03-03T22:11:50.397Z,4.40
2023-03-03T22:14:19.969Z,4.70
2023-03-03T22:16:48.336Z,4.70
2023-03-03T22:19:16.698Z,4.60
2023-03-03T22:21:46.622Z,4.80
2023-03-03T22:24:15.122Z,4.60
2023-03-03T22:26:43.410Z,4.70
2023-03-03T22:29:12.271Z,4.60
2023-03-03T22:31:41.963Z,4.70
2023-03-03T22:34:12.321Z,4.50
2023-03-03T22:36:40.506Z,4.70
2023-03-03T22:39:08.922Z,4.60
2023-03-03T22:41:37.199Z,4.60
2023-03-03T22:44:05.691Z,4.60
2023-03-03T22:46:34.540Z,4.50
2023-03-03T22:49:04.124Z,4.70
2023-03-03T22:51:32.353Z,4.60
2023-03-03T22:54:00.456Z,4.70
2023-03-03T22:56:28.707Z,4.70
2023-03-03T22:58:56.870Z,4.60
2023-03-03T23:01:25.489Z,4.50
2023-03-03T23:03:53.639Z,4.60
2023-03-03T23:06:24.606Z,4.70
2023-03-03T23:08:52.927Z,4.70
2023-03-03T23:11:21.701Z,4.60
2023-03-03T23:13:51.464Z,4.40
2023-03-03T23:16:19.777Z,4.30
2023-03-03T23:18:48.474Z,4.60
2023-03-03T23:21:17.404Z,4.50
2023-03-03T23:23:46.970Z,4.50
2023-03-03T23:26:15.809Z,4.50
2023-03-03T23:28:44.404Z,4.50
2023-03-03T23:31:12.863Z,4.40
2023-03-03T23:33:41.204Z,4.40
2023-03-03T23:37:05.384Z,4.50
2023-03-03T23:39:36.492Z,4.50
2023-03-03T23:42:10.101Z,4.50
2023-03-03T23:44:40.271Z,4.30
2023-03-03T23:47:09.825Z,4.50
2023-03-03T23:49:38.435Z,4.40
2023-03-03T23:52:06.948Z,4.60
2023-03-03T23:54:36.464Z,4.40
2023-03-03T23:57:07.905Z,4.50
2023-03-03T23:59:36.706Z,4.50
